Time,TemperatureF,DewpointF,PressureIn,WindDirection,WindDirectionDegrees,WindSpeedMPH,WindSpeedGustMPH,Humidity,HourlyPrecipIn,Conditions,Clouds,dailyrainin,SoftwareType,DateUTC
2013-01-14 00:03:00,4.1,0.9,30.10,West,259,2.0,5.0,86,0.00,,SKC,0.00,VWS V14.01,2013-01-14 06:03:00,
2013-01-14 00:08:00,4.1,0.6,30.10,WNW,283,2.0,5.0,85,0.00,,SKC,0.00,VWS V14.01,2013-01-14 06:08:00,
2013-01-14 00:13:00,4.0,0.5,30.10,West,259,2.0,4.0,85,0.00,,SKC,0.00,VWS V14.01,2013-01-14 06:13:00,
2013-01-14 00:18:00,4.1,0.6,30.10,West,275,2.0,4.0,85,0.00,,SKC,0.00,VWS V14.01,2013-01-14 06:18:00,
2013-01-14 00:23:00,4.2,0.7,30.10,WSW,252,4.0,6.0,85,0.00,,SKC,0.00,VWS V14.01,2013-01-14 06:23:00,
2013-01-14 00:28:00,4.3,0.8,30.10,West,263,2.0,4.0,85,0.00,,SKC,0.00,VWS V14.01,2013-01-14 06:28:00,
2013-01-14 00:33:00,4.4,0.9,30.11,WSW,257,2.0,4.0,85,0.00,,SKC,0.00,VWS V14.01,2013-01-14 06:33:00,
2013-01-14 00:38:00,4.6,1.1,30.11,West,276,2.0,3.0,85,0.00,,SKC,0.00,VWS V14.01,2013-01-14 06:38:00,
2013-01-14 00:43:00,4.6,1.1,30.11,West,276,4.0,4.0,85,0.00,,SKC,0.00,VWS V14.01,2013-01-14 06:43:00,
2013-01-14 00:48:00,4.7,1.2,30.12,WNW,291,3.0,3.0,85,0.00,,SKC,0.00,VWS V14.01,2013-01-14 06:48:00,
2013-01-14 00:53:00,4.8,1.3,30.12,WSW,250,3.0,4.0,85,0.00,,SKC,0.00,VWS V14.01,2013-01-14 06:53:00,
2013-01-14 00:58:00,4.9,1.4,30.12,West,279,5.0,5.0,85,0.00,,SKC,0.00,VWS V14.01,2013-01-14 06:58:00,
2013-01-14 01:03:00,5.0,1.5,30.12,WNW,292,4.0,5.0,85,0.00,,SKC,0.00,VWS V14.01,2013-01-14 07:03:00,
2013-01-14 01:08:00,5.1,1.6,30.12,WSW,251,2.0,8.0,85,0.00,,SKC,0.00,VWS V14.01,2013-01-14 07:08:00,
2013-01-14 01:14:00,5.2,1.7,30.12,WNW,283,2.0,3.0,85,0.00,,SKC,0.00,VWS V14.01,2013-01-14 07:14:00,
2013-01-14 01:19:00,5.3,1.8,30.12,WNW,288,2.0,4.0,85,0.00,,SKC,0.00,VWS V14.01,2013-01-14 07:19:00,
2013-01-14 01:24:00,5.3,1.8,30.12,West,281,0.0,2.0,85,0.00,,SKC,0.00,VWS V14.01,2013-01-14 07:24:00,
2013-01-14 01:29:00,5.5,2.2,30.12,WNW,286,1.0,4.0,86,0.00,,SKC,0.00,VWS V14.01,2013-01-14 07:29:00,
2013-01-14 01:34:00,5.5,2.0,30.13,WNW,283,6.0,8.0,85,0.00,,SKC,0.00,VWS V14.01,2013-01-14 07:34:00,
2013-01-14 01:39:00,5.4,1.9,30.13,WNW,290,4.0,5.0,85,0.00,,SKC,0.00,VWS V14.01,2013-01-14 07:39:00,
2013-01-14 01:44:00,5.4,1.9,30.13,WNW,294,2.0,3.0,85,0.00,,SKC,0.00,VWS V14.01,2013-01-14 07:44:00,
2013-01-14 01:49:00,5.5,2.0,30.13,West,267,1.0,4.0,85,0.00,,SKC,0.00,VWS V14.01,2013-01-14 07:49:00,
2013-01-14 01:54:00,5.5,2.0,30.13,West,276,3.0,4.0,85,0.00,,SKC,0.00,VWS V14.01,2013-01-14 07:54:00,
2013-01-14 01:59:00,5.4,1.9,30.13,West,272,2.0,4.0,85,0.00,,SKC,0.00,VWS V14.01,2013-01-14 07:59:00,
2013-01-14 02:04:00,5.4,1.9,30.14,WNW,288,2.0,2.0,85,0.00,,SKC,0.00,VWS V14.01,2013-01-14 08:04:00,
2013-01-14 02:09:00,5.4,1.9,30.14,West,280,2.0,4.0,85,0.00,,SKC,0.00,VWS V14.01,2013-01-14 08:09:00,
2013-01-14 02:14:00,5.3,1.8,30.14,WNW,286,3.0,4.0,85,0.00,,SKC,0.00,VWS V14.01,2013-01-14 08:14:00,
2013-01-14 02:19:00,5.3,1.8,30.15,SSW,205,1.0,5.0,85,0.00,,SKC,0.00,VWS V14.01,2013-01-14 08:19:00,
2013-01-14 02:24:00,5.2,1.7,30.15,WNW,286,3.0,7.0,85,0.00,,SKC,0.00,VWS V14.01,2013-01-14 08:24:00,
2013-01-14 02:29:00,5.1,1.6,30.15,WNW,288,2.0,5.0,85,0.00,,SKC,0.00,VWS V14.01,2013-01-14 08:29:00,
2013-01-14 02:34:00,5.0,1.5,30.16,WSW,256,1.0,4.0,85,0.00,,SKC,0.00,VWS V14.01,2013-01-14 08:34:00,
2013-01-14 02:39:00,4.8,1.3,30.16,West,263,2.0,2.0,85,0.00,,SKC,0.00,VWS V14.01,2013-01-14 08:39:00,
2013-01-14 02:44:00,4.7,1.2,30.16,West,264,2.0,5.0,85,0.00,,SKC,0.00,VWS V14.01,2013-01-14 08:44:00,
2013-01-14 02:49:00,4.6,1.1,30.16,West,277,1.0,3.0,85,0.00,,SKC,0.00,VWS V14.01,2013-01-14 08:49:00,
2013-01-14 02:54:00,4.5,1.0,30.16,WSW,254,0.0,4.0,85,0.00,,SKC,0.00,VWS V14.01,2013-01-14 08:54:00,
2013-01-14 02:59:00,4.4,0.9,30.16,West,279,2.0,3.0,85,0.00,,SKC,0.00,VWS V14.01,2013-01-14 08:59:00,
2013-01-14 03:04:00,4.3,0.8,30.17,West,263,3.0,6.0,85,0.00,,SKC,0.00,VWS V14.01,2013-01-14 09:04:00,
2013-01-14 03:09:00,4.3,0.8,30.17,WSW,257,1.0,4.0,85,0.00,,SKC,0.00,VWS V14.01,2013-01-14 09:09:00,
2013-01-14 03:14:00,4.2,0.9,30.17,WNW,289,4.0,8.0,86,0.00,,SKC,0.00,VWS V14.01,2013-01-14 09:14:00,
2013-01-14 03:19:00,4.0,0.8,30.17,WSW,254,1.0,6.0,86,0.00,,SKC,0.00,VWS V14.01,2013-01-14 09:19:00,
2013-01-14 03:24:00,3.9,0.6,30.17,WNW,291,5.0,5.0,86,0.00,,SKC,0.00,VWS V14.01,2013-01-14 09:24:00,
2013-01-14 03:29:00,3.7,0.5,30.17,WNW,282,1.0,3.0,86,0.00,,SKC,0.00,VWS V14.01,2013-01-14 09:29:00,
2013-01-14 03:34:00,3.6,0.4,30.17,WNW,283,1.0,6.0,86,0.00,,SKC,0.00,VWS V14.01,2013-01-14 09:34:00,
2013-01-14 03:39:00,3.4,0.4,30.17,West,273,1.0,4.0,87,0.00,,SKC,0.00,VWS V14.01,2013-01-14 09:39:00,
2013-01-14 03:44:00,3.2,0.2,30.17,West,277,1.0,3.0,87,0.00,,SKC,0.00,VWS V14.01,2013-01-14 09:44:00,
2013-01-14 03:49:00,3.0,0.0,30.17,West,264,3.0,5.0,87,0.00,,SKC,0.00,VWS V14.01,2013-01-14 09:49:00,
2013-01-14 03:54:00,2.8,-0.2,30.17,West,267,2.0,4.0,87,0.00,,SKC,0.00,VWS V14.01,2013-01-14 09:54:00,
2013-01-14 03:59:00,2.7,-0.3,30.17,West,261,0.0,0.0,87,0.00,,SKC,0.00,VWS V14.01,2013-01-14 09:59:00,
2013-01-14 04:04:00,2.4,-0.6,30.18,West,265,0.0,0.0,87,0.00,,SKC,0.00,VWS V14.01,2013-01-14 10:04:00,
2013-01-14 04:09:00,2.2,-0.8,30.18,WSW,254,0.0,0.0,87,0.00,,SKC,0.00,VWS V14.01,2013-01-14 10:09:00,
2013-01-14 04:14:00,1.9,-1.1,30.18,West,271,1.0,2.0,87,0.00,,SKC,0.00,VWS V14.01,2013-01-14 10:14:00,
2013-01-14 04:19:00,1.8,-1.2,30.18,West,267,1.0,2.0,87,0.00,,SKC,0.00,VWS V14.01,2013-01-14 10:19:00,
2013-01-14 04:24:00,1.8,-1.2,30.18,West,259,2.0,3.0,87,0.00,,SKC,0.00,VWS V14.01,2013-01-14 10:24:00,
2013-01-14 04:29:00,1.7,-1.3,30.18,West,264,0.0,2.0,87,0.00,,SKC,0.00,VWS V14.01,2013-01-14 10:29:00,
2013-01-14 04:35:00,1.7,-1.3,30.19,West,259,1.0,2.0,87,0.00,,SKC,0.00,VWS V14.01,2013-01-14 10:35:00,
2013-01-14 04:40:00,1.6,-1.4,30.19,West,261,0.0,3.0,87,0.00,,SKC,0.00,VWS V14.01,2013-01-14 10:40:00,
2013-01-14 04:45:00,1.5,-1.5,30.19,SW,227,1.0,3.0,87,0.00,,SKC,0.00,VWS V14.01,2013-01-14 10:45:00,
2013-01-14 04:50:00,1.5,-1.5,30.19,West,264,0.0,3.0,87,0.00,,SKC,0.00,VWS V14.01,2013-01-14 10:50:00,
2013-01-14 04:55:00,1.4,-1.6,30.19,West,275,0.0,2.0,87,0.00,,SKC,0.00,VWS V14.01,2013-01-14 10:55:00,
2013-01-14 05:00:00,1.3,-1.7,30.19,West,272,1.0,4.0,87,0.00,,SKC,0.00,VWS V14.01,2013-01-14 11:00:00,
2013-01-14 05:05:00,1.2,-1.8,30.19,West,279,0.0,2.0,87,0.00,,SKC,0.00,VWS V14.01,2013-01-14 11:05:00,
2013-01-14 05:10:00,1.1,-1.9,30.19,WSW,257,0.0,2.0,87,0.00,,SKC,0.00,VWS V14.01,2013-01-14 11:10:00,
2013-01-14 05:15:00,1.1,-1.9,30.19,West,271,1.0,2.0,87,0.00,,SKC,0.00,VWS V14.01,2013-01-14 11:15:00,
2013-01-14 05:20:00,1.0,-2.0,30.19,WSW,253,0.0,0.0,87,0.00,,SKC,0.00,VWS V14.01,2013-01-14 11:20:00,
2013-01-14 05:25:00,1.0,-2.0,30.19,WSW,241,1.0,2.0,87,0.00,,SKC,0.00,VWS V14.01,2013-01-14 11:25:00,
2013-01-14 05:30:00,0.8,-2.2,30.19,West,265,0.0,1.0,87,0.00,,SKC,0.00,VWS V14.01,2013-01-14 11:30:00,
2013-01-14 05:35:00,0.8,-2.2,30.21,SSW,195,0.0,1.0,87,0.00,,SKC,0.00,VWS V14.01,2013-01-14 11:35:00,
2013-01-14 05:40:00,0.8,-2.2,30.21,SW,234,0.0,1.0,87,0.00,,SKC,0.00,VWS V14.01,2013-01-14 11:40:00,
2013-01-14 05:45:00,0.7,-2.2,30.21,WSW,252,0.0,1.0,87,0.00,,SKC,0.00,VWS V14.01,2013-01-14 11:45:00,
2013-01-14 05:50:00,0.7,-2.2,30.22,WSW,256,1.0,2.0,87,0.00,,SKC,0.00,VWS V14.01,2013-01-14 11:50:00,
2013-01-14 05:55:00,0.6,-2.1,30.22,SSW,205,0.0,1.0,88,0.00,,SKC,0.00,VWS V14.01,2013-01-14 11:55:00,
2013-01-14 06:00:00,0.6,-2.1,30.22,WSW,257,2.0,3.0,88,0.00,,SKC,0.00,VWS V14.01,2013-01-14 12:00:00,
2013-01-14 06:05:00,0.5,-2.5,30.23,WSW,250,0.0,0.0,87,0.00,,SKC,0.00,VWS V14.01,2013-01-14 12:05:00,
2013-01-14 06:10:00,0.4,-2.5,30.23,West,279,1.0,2.0,87,0.00,,SKC,0.00,VWS V14.01,2013-01-14 12:10:00,
2013-01-14 06:15:00,0.4,-2.5,30.23,West,268,0.0,0.0,87,0.00,,SKC,0.00,VWS V14.01,2013-01-14 12:15:00,
2013-01-14 06:20:00,0.3,-2.7,30.24,SW,230,0.0,0.0,87,0.00,,SKC,0.00,VWS V14.01,2013-01-14 12:20:00,
2013-01-14 06:25:00,0.3,-2.7,30.24,West,259,0.0,0.0,87,0.00,,SKC,0.00,VWS V14.01,2013-01-14 12:25:00,
2013-01-14 06:30:00,0.2,-2.7,30.24,West,259,0.0,0.0,87,0.00,,SKC,0.00,VWS V14.01,2013-01-14 12:30:00,
2013-01-14 06:35:00,0.1,-2.8,30.24,SSE,164,0.0,0.0,87,0.00,,SKC,0.00,VWS V14.01,2013-01-14 12:35:00,
2013-01-14 06:40:00,0.1,-2.7,30.24,SW,232,0.0,0.0,88,0.00,,SKC,0.00,VWS V14.01,2013-01-14 12:40:00,
2013-01-14 06:45:00,-0.1,-2.8,30.24,WSW,238,0.0,0.0,88,0.00,,SKC,0.00,VWS V14.01,2013-01-14 12:45:00,
2013-01-14 06:50:00,-0.2,-2.9,30.25,WSW,239,0.0,0.0,88,0.00,,SKC,0.00,VWS V14.01,2013-01-14 12:50:00,
2013-01-14 06:55:00,-0.3,-3.0,30.25,SSW,195,0.0,0.0,88,0.00,,SKC,0.00,VWS V14.01,2013-01-14 12:55:00,
2013-01-14 07:00:00,-0.3,-3.0,30.25,SW,229,0.0,0.0,88,0.00,,SKC,0.00,VWS V14.01,2013-01-14 13:00:00,
2013-01-14 07:05:00,-0.3,-3.0,30.26,SW,229,0.0,0.0,88,0.00,,SKC,0.00,VWS V14.01,2013-01-14 13:05:00,
2013-01-14 07:10:00,-0.3,-3.0,30.26,WSW,250,0.0,0.0,88,0.00,,SKC,0.00,VWS V14.01,2013-01-14 13:10:00,
2013-01-14 07:15:00,-0.3,-3.0,30.26,SW,221,0.0,0.0,88,0.00,,SKC,0.00,VWS V14.01,2013-01-14 13:15:00,
2013-01-14 07:20:00,-0.3,-3.0,30.26,SW,231,0.0,0.0,88,0.00,,SKC,0.00,VWS V14.01,2013-01-14 13:20:00,
2013-01-14 07:25:00,-0.4,-3.1,30.26,SSW,202,0.0,0.0,88,0.00,,SKC,0.00,VWS V14.01,2013-01-14 13:25:00,
2013-01-14 07:30:00,-0.5,-3.2,30.26,SSW,202,0.0,0.0,88,0.00,,SKC,0.00,VWS V14.01,2013-01-14 13:30:00,
2013-01-14 07:35:00,-0.5,-3.2,30.27,SW,227,0.0,0.0,88,0.00,,SKC,0.00,VWS V14.01,2013-01-14 13:35:00,
2013-01-14 07:40:00,-0.7,-3.4,30.27,SW,227,0.0,0.0,88,0.00,,SKC,0.00,VWS V14.01,2013-01-14 13:40:00,
2013-01-14 07:45:00,-0.6,-3.3,30.27,WSW,254,0.0,0.0,88,0.00,,SKC,0.00,VWS V14.01,2013-01-14 13:45:00,
2013-01-14 07:50:00,-0.7,-3.4,30.28,WSW,252,0.0,0.0,88,0.00,,SKC,0.00,VWS V14.01,2013-01-14 13:50:00,
2013-01-14 07:55:00,-0.6,-3.3,30.28,WSW,238,0.0,0.0,88,0.00,,SKC,0.00,VWS V14.01,2013-01-14 13:55:00,
2013-01-14 08:00:00,-0.5,-3.2,30.28,SSW,195,0.0,0.0,88,0.00,,SKC,0.00,VWS V14.01,2013-01-14 14:00:00,
2013-01-14 08:05:00,-0.4,-3.1,30.29,SSW,194,0.0,0.0,88,0.00,,SKC,0.00,VWS V14.01,2013-01-14 14:05:00,
2013-01-14 08:10:00,-0.3,-3.0,30.29,SW,221,0.0,0.0,88,0.00,,SKC,0.00,VWS V14.01,2013-01-14 14:10:00,
2013-01-14 08:15:00,-0.2,-2.9,30.29,SW,226,0.0,0.0,88,0.00,,SKC,0.00,VWS V14.01,2013-01-14 14:15:00,
2013-01-14 08:21:00,-0.1,-2.8,30.30,SW,236,0.0,0.0,88,0.00,,SKC,0.00,VWS V14.01,2013-01-14 14:21:00,
2013-01-14 08:26:00,0.1,-2.6,30.30,West,265,0.0,0.0,88,0.00,,SKC,0.00,VWS V14.01,2013-01-14 14:26:00,
2013-01-14 08:31:00,0.3,-2.4,30.30,West,264,1.0,2.0,88,0.00,,SKC,0.00,VWS V14.01,2013-01-14 14:31:00,
2013-01-14 08:36:00,0.4,-2.3,30.31,South,187,1.0,2.0,88,0.00,,SKC,0.00,VWS V14.01,2013-01-14 14:36:00,
2013-01-14 08:41:00,0.7,-2.2,30.31,West,259,1.0,2.0,87,0.00,,SKC,0.00,VWS V14.01,2013-01-14 14:41:00,
2013-01-14 08:46:00,1.1,-1.9,30.31,West,259,0.0,1.0,87,0.00,,SKC,0.00,VWS V14.01,2013-01-14 14:46:00,
2013-01-14 08:51:00,1.5,-1.5,30.31,West,267,2.0,4.0,87,0.00,,SKC,0.00,VWS V14.01,2013-01-14 14:51:00,
2013-01-14 08:56:00,1.6,-1.6,30.31,South,173,2.0,5.0,86,0.00,,SKC,0.00,VWS V14.01,2013-01-14 14:56:00,
2013-01-14 09:01:00,1.8,-1.4,30.31,WSW,246,0.0,2.0,86,0.00,,SKC,0.00,VWS V14.01,2013-01-14 15:01:00,
2013-01-14 09:06:00,2.1,-1.1,30.32,WSW,252,2.0,4.0,86,0.00,,SKC,0.00,VWS V14.01,2013-01-14 15:06:00,
2013-01-14 09:11:00,2.3,-0.9,30.32,West,266,3.0,5.0,86,0.00,,SKC,0.00,VWS V14.01,2013-01-14 15:11:00,
2013-01-14 09:16:00,2.5,-0.7,30.32,West,259,2.0,5.0,86,0.00,,SKC,0.00,VWS V14.01,2013-01-14 15:16:00,
2013-01-14 09:21:00,2.9,-0.3,30.32,WSW,257,2.0,3.0,86,0.00,,SKC,0.00,VWS V14.01,2013-01-14 15:21:00,
2013-01-14 09:26:00,3.2,-0.3,30.32,West,275,2.0,4.0,85,0.00,,SKC,0.00,VWS V14.01,2013-01-14 15:26:00,
2013-01-14 09:31:00,3.3,-0.2,30.32,West,273,1.0,5.0,85,0.00,,SKC,0.00,VWS V14.01,2013-01-14 15:31:00,
2013-01-14 09:36:00,3.5,-0.2,30.32,ESE,107,0.0,6.0,84,0.00,,SKC,0.00,VWS V14.01,2013-01-14 15:36:00,
2013-01-14 09:41:00,3.8,0.3,30.32,West,273,1.0,3.0,85,0.00,,SKC,0.00,VWS V14.01,2013-01-14 15:41:00,
2013-01-14 09:46:00,4.3,0.8,30.32,WSW,246,2.0,3.0,85,0.00,,SKC,0.00,VWS V14.01,2013-01-14 15:46:00,
2013-01-14 09:51:00,4.5,0.7,30.32,WSW,241,2.0,5.0,84,0.00,,SKC,0.00,VWS V14.01,2013-01-14 15:51:00,
2013-01-14 09:56:00,4.8,1.0,30.32,SW,229,2.0,6.0,84,0.00,,SKC,0.00,VWS V14.01,2013-01-14 15:56:00,
2013-01-14 10:01:00,5.0,1.2,30.32,WSW,245,1.0,6.0,84,0.00,,SKC,0.00,VWS V14.01,2013-01-14 16:01:00,
2013-01-14 10:06:00,5.3,1.3,30.32,WSW,257,1.0,4.0,83,0.00,,SKC,0.00,VWS V14.01,2013-01-14 16:06:00,
2013-01-14 10:11:00,5.7,1.7,30.32,WNW,293,2.0,6.0,83,0.00,,SKC,0.00,VWS V14.01,2013-01-14 16:11:00,
2013-01-14 10:16:00,6.1,2.1,30.32,SW,233,2.0,2.0,83,0.00,,SKC,0.00,VWS V14.01,2013-01-14 16:16:00,
2013-01-14 10:21:00,6.3,2.0,30.32,West,263,1.0,4.0,82,0.00,,SKC,0.00,VWS V14.01,2013-01-14 16:21:00,
2013-01-14 10:26:00,6.6,2.3,30.32,WNW,282,2.0,7.0,82,0.00,,SKC,0.00,VWS V14.01,2013-01-14 16:26:00,
2013-01-14 10:31:00,7.0,2.7,30.32,SSE,163,0.0,4.0,82,0.00,,SKC,0.00,VWS V14.01,2013-01-14 16:31:00,
2013-01-14 10:36:00,7.4,2.8,30.32,WNW,282,0.0,6.0,81,0.00,,SKC,0.00,VWS V14.01,2013-01-14 16:36:00,
2013-01-14 10:41:00,7.8,3.2,30.32,WSW,245,2.0,5.0,81,0.00,,SKC,0.00,VWS V14.01,2013-01-14 16:41:00,
2013-01-14 10:46:00,8.4,3.8,30.32,South,174,0.0,4.0,81,0.00,,SKC,0.00,VWS V14.01,2013-01-14 16:46:00,
2013-01-14 10:51:00,8.6,3.4,30.31,West,261,3.0,5.0,79,0.00,,SKC,0.00,VWS V14.01,2013-01-14 16:51:00,
2013-01-14 10:56:00,8.5,3.3,30.31,WSW,245,4.0,6.0,79,0.00,,SKC,0.00,VWS V14.01,2013-01-14 16:56:00,
2013-01-14 11:01:00,8.7,3.5,30.31,WSW,239,3.0,7.0,79,0.00,,SKC,0.00,VWS V14.01,2013-01-14 17:01:00,
2013-01-14 11:06:00,8.9,3.7,30.30,SW,229,3.0,5.0,79,0.00,,SKC,0.00,VWS V14.01,2013-01-14 17:06:00,
2013-01-14 11:11:00,9.3,4.1,30.30,SW,215,2.0,5.0,79,0.00,,SKC,0.00,VWS V14.01,2013-01-14 17:11:00,
2013-01-14 11:16:00,9.6,4.1,30.30,WSW,240,3.0,8.0,78,0.00,,SKC,0.00,VWS V14.01,2013-01-14 17:16:00,
2013-01-14 11:21:00,9.7,4.2,30.30,WSW,250,3.0,6.0,78,0.00,,SKC,0.00,VWS V14.01,2013-01-14 17:21:00,
2013-01-14 11:26:00,9.9,4.4,30.30,WSW,244,5.0,8.0,78,0.00,,SKC,0.00,VWS V14.01,2013-01-14 17:26:00,
2013-01-14 11:31:00,10.2,4.7,30.30,SSW,202,3.0,5.0,78,0.00,,SKC,0.00,VWS V14.01,2013-01-14 17:31:00,
2013-01-14 11:36:00,10.5,5.0,30.29,West,280,2.0,6.0,78,0.00,,SKC,0.00,VWS V14.01,2013-01-14 17:36:00,
2013-01-14 11:41:00,10.9,5.1,30.29,WNW,290,2.0,9.0,77,0.00,,SKC,0.00,VWS V14.01,2013-01-14 17:41:00,
2013-01-14 11:46:00,11.0,5.2,30.28,West,260,2.0,7.0,77,0.00,,SKC,0.00,VWS V14.01,2013-01-14 17:46:00,
2013-01-14 11:51:00,11.3,5.2,30.28,WNW,293,8.0,8.0,76,0.00,,SKC,0.00,VWS V14.01,2013-01-14 17:51:00,
2013-01-14 11:56:00,11.5,5.4,30.28,West,261,5.0,7.0,76,0.00,,SKC,0.00,VWS V14.01,2013-01-14 17:56:00,
2013-01-14 12:01:00,11.9,5.8,30.27,WSW,254,2.0,8.0,76,0.00,,SKC,0.00,VWS V14.01,2013-01-14 18:01:00,
2013-01-14 12:06:00,12.3,5.9,30.27,West,267,4.0,7.0,75,0.00,,SKC,0.00,VWS V14.01,2013-01-14 18:06:00,
2013-01-14 12:11:00,12.2,5.5,30.27,SW,232,8.0,9.0,74,0.00,,SKC,0.00,VWS V14.01,2013-01-14 18:11:00,
2013-01-14 12:16:00,12.5,5.8,30.27,WSW,250,3.0,7.0,74,0.00,,SKC,0.00,VWS V14.01,2013-01-14 18:16:00,
2013-01-14 12:21:00,12.8,6.1,30.27,West,260,3.0,9.0,74,0.00,,SKC,0.00,VWS V14.01,2013-01-14 18:21:00,
2013-01-14 12:26:00,13.3,6.3,30.27,WSW,250,4.0,6.0,73,0.00,,SKC,0.00,VWS V14.01,2013-01-14 18:26:00,
2013-01-14 12:31:00,13.4,6.4,30.26,WSW,256,2.0,8.0,73,0.00,,SKC,0.00,VWS V14.01,2013-01-14 18:31:00,
2013-01-14 12:36:00,14.0,6.7,30.26,WNW,292,7.0,8.0,72,0.00,,SKC,0.00,VWS V14.01,2013-01-14 18:36:00,
2013-01-14 12:41:00,13.9,6.2,30.26,West,272,1.0,8.0,71,0.00,,SKC,0.00,VWS V14.01,2013-01-14 18:41:00,
2013-01-14 12:46:00,13.7,6.1,30.27,West,259,5.0,8.0,71,0.00,,SKC,0.00,VWS V14.01,2013-01-14 18:46:00,
2013-01-14 12:51:00,13.7,6.4,30.27,SW,230,4.0,7.0,72,0.00,,SKC,0.00,VWS V14.01,2013-01-14 18:51:00,
2013-01-14 12:56:00,13.7,6.1,30.27,WSW,250,4.0,10.0,71,0.00,,SKC,0.00,VWS V14.01,2013-01-14 18:56:00,
2013-01-14 13:01:00,13.6,6.0,30.27,West,264,2.0,7.0,71,0.00,,SKC,0.00,VWS V14.01,2013-01-14 19:01:00,
2013-01-14 13:06:00,13.5,5.9,30.27,WSW,250,7.0,10.0,71,0.00,,SKC,0.00,VWS V14.01,2013-01-14 19:06:00,
2013-01-14 13:11:00,13.3,6.0,30.27,West,260,4.0,10.0,72,0.00,,SKC,0.00,VWS V14.01,2013-01-14 19:11:00,
2013-01-14 13:16:00,13.1,5.8,30.27,SW,215,2.0,10.0,72,0.00,,SKC,0.00,VWS V14.01,2013-01-14 19:16:00,
2013-01-14 13:21:00,13.3,6.3,30.27,West,261,4.0,5.0,73,0.00,,SKC,0.00,VWS V14.01,2013-01-14 19:21:00,
2013-01-14 13:26:00,13.4,6.1,30.27,WSW,242,2.0,5.0,72,0.00,,SKC,0.00,VWS V14.01,2013-01-14 19:26:00,
2013-01-14 13:32:00,13.4,6.1,30.28,West,273,2.0,9.0,72,0.00,,SKC,0.00,VWS V14.01,2013-01-14 19:32:00,
2013-01-14 13:37:00,13.3,6.0,30.28,West,272,3.0,8.0,72,0.00,,SKC,0.00,VWS V14.01,2013-01-14 19:37:00,
2013-01-14 13:42:00,13.4,6.4,30.28,WSW,248,2.0,7.0,73,0.00,,SKC,0.00,VWS V14.01,2013-01-14 19:42:00,
2013-01-14 13:47:00,13.6,6.6,30.28,WSW,254,2.0,5.0,73,0.00,,SKC,0.00,VWS V14.01,2013-01-14 19:47:00,
2013-01-14 13:52:00,13.5,6.5,30.28,WNW,302,4.0,9.0,73,0.00,,SKC,0.00,VWS V14.01,2013-01-14 19:52:00,
2013-01-14 13:57:00,13.5,6.5,30.28,West,277,3.0,9.0,73,0.00,,SKC,0.00,VWS V14.01,2013-01-14 19:57:00,
2013-01-14 14:02:00,13.6,6.9,30.29,WSW,242,2.0,6.0,74,0.00,,SKC,0.00,VWS V14.01,2013-01-14 20:02:00,
2013-01-14 14:07:00,13.5,6.5,30.29,WSW,256,1.0,8.0,73,0.00,,SKC,0.00,VWS V14.01,2013-01-14 20:07:00,
2013-01-14 14:12:00,13.5,6.5,30.29,WNW,294,4.0,7.0,73,0.00,,SKC,0.00,VWS V14.01,2013-01-14 20:12:00,
2013-01-14 14:17:00,13.5,6.5,30.29,West,273,2.0,7.0,73,0.00,,SKC,0.00,VWS V14.01,2013-01-14 20:17:00,
2013-01-14 14:22:00,13.5,6.5,30.29,WSW,252,1.0,8.0,73,0.00,,SKC,0.00,VWS V14.01,2013-01-14 20:22:00,
2013-01-14 14:27:00,13.2,6.2,30.29,West,269,3.0,11.0,73,0.00,,SKC,0.00,VWS V14.01,2013-01-14 20:27:00,
2013-01-14 14:32:00,13.0,6.3,30.29,West,274,4.0,8.0,74,0.00,,SKC,0.00,VWS V14.01,2013-01-14 20:32:00,
2013-01-14 14:37:00,13.1,6.7,30.29,West,274,2.0,4.0,75,0.00,,SKC,0.00,VWS V14.01,2013-01-14 20:37:00,
2013-01-14 14:42:00,13.3,6.9,30.29,WSW,248,2.0,6.0,75,0.00,,SKC,0.00,VWS V14.01,2013-01-14 20:42:00,
2013-01-14 14:47:00,13.0,6.6,30.30,WSW,257,3.0,7.0,75,0.00,,SKC,0.00,VWS V14.01,2013-01-14 20:47:00,
2013-01-14 14:52:00,13.0,6.9,30.30,WSW,248,4.0,6.0,76,0.00,,SKC,0.00,VWS V14.01,2013-01-14 20:52:00,
2013-01-14 14:57:00,13.0,6.6,30.30,West,267,5.0,8.0,75,0.00,,SKC,0.00,VWS V14.01,2013-01-14 20:57:00,
2013-01-14 15:02:00,13.0,6.6,30.30,SSE,168,3.0,4.0,75,0.00,,SKC,0.00,VWS V14.01,2013-01-14 21:02:00,
2013-01-14 15:07:00,12.8,6.4,30.30,SW,232,5.0,8.0,75,0.00,,SKC,0.00,VWS V14.01,2013-01-14 21:07:00,
2013-01-14 15:12:00,12.6,6.2,30.30,SSE,161,3.0,7.0,75,0.00,,SKC,0.00,VWS V14.01,2013-01-14 21:12:00,
2013-01-14 15:17:00,12.6,6.2,30.30,WNW,294,6.0,6.0,75,0.00,,SKC,0.00,VWS V14.01,2013-01-14 21:17:00,
2013-01-14 15:22:00,12.5,6.1,30.30,SW,233,1.0,8.0,75,0.00,,SKC,0.00,VWS V14.01,2013-01-14 21:22:00,
2013-01-14 15:27:00,12.5,6.1,30.30,West,259,3.0,8.0,75,0.00,,SKC,0.00,VWS V14.01,2013-01-14 21:27:00,
2013-01-14 15:32:00,12.4,6.3,30.30,WSW,254,4.0,6.0,76,0.00,,SKC,0.00,VWS V14.01,2013-01-14 21:32:00,
2013-01-14 15:37:00,12.2,5.8,30.30,West,271,3.0,6.0,75,0.00,,SKC,0.00,VWS V14.01,2013-01-14 21:37:00,
2013-01-14 15:42:00,12.2,6.1,30.30,West,259,4.0,6.0,76,0.00,,SKC,0.00,VWS V14.01,2013-01-14 21:42:00,
2013-01-14 15:47:00,12.0,5.9,30.30,WSW,256,3.0,5.0,76,0.00,,SKC,0.00,VWS V14.01,2013-01-14 21:47:00,
2013-01-14 15:52:00,12.0,6.2,30.30,West,269,2.0,4.0,77,0.00,,SKC,0.00,VWS V14.01,2013-01-14 21:52:00,
2013-01-14 15:57:00,11.9,6.1,30.30,SW,232,1.0,7.0,77,0.00,,SKC,0.00,VWS V14.01,2013-01-14 21:57:00,
2013-01-14 16:02:00,11.9,6.1,30.31,WSW,257,1.0,5.0,77,0.00,,SKC,0.00,VWS V14.01,2013-01-14 22:02:00,
2013-01-14 16:07:00,11.7,5.9,30.31,SSE,152,3.0,4.0,77,0.00,,SKC,0.00,VWS V14.01,2013-01-14 22:07:00,
2013-01-14 16:12:00,11.5,5.7,30.31,WNW,293,1.0,2.0,77,0.00,,SKC,0.00,VWS V14.01,2013-01-14 22:12:00,
2013-01-14 16:17:00,11.5,5.7,30.31,West,267,1.0,2.0,77,0.00,,SKC,0.00,VWS V14.01,2013-01-14 22:17:00,
2013-01-14 16:22:00,11.4,5.6,30.31,WSW,248,4.0,4.0,77,0.00,,SKC,0.00,VWS V14.01,2013-01-14 22:22:00,
2013-01-14 16:27:00,11.3,5.5,30.31,SW,234,2.0,3.0,77,0.00,,SKC,0.00,VWS V14.01,2013-01-14 22:27:00,
2013-01-14 16:32:00,11.1,5.3,30.31,WSW,245,3.0,3.0,77,0.00,,SKC,0.00,VWS V14.01,2013-01-14 22:32:00,
2013-01-14 16:37:00,11.0,5.2,30.31,WSW,250,3.0,4.0,77,0.00,,SKC,0.00,VWS V14.01,2013-01-14 22:37:00,
2013-01-14 16:42:00,10.9,5.1,30.31,WSW,256,3.0,4.0,77,0.00,,SKC,0.00,VWS V14.01,2013-01-14 22:42:00,
2013-01-14 16:47:00,10.7,5.2,30.31,West,259,2.0,3.0,78,0.00,,SKC,0.00,VWS V14.01,2013-01-14 22:47:00,
2013-01-14 16:52:00,10.7,5.2,30.31,WSW,254,3.0,3.0,78,0.00,,SKC,0.00,VWS V14.01,2013-01-14 22:52:00,
2013-01-14 16:57:00,10.6,5.4,30.31,SE,128,3.0,3.0,79,0.00,,SKC,0.00,VWS V14.01,2013-01-14 22:57:00,
2013-01-14 17:02:00,10.5,5.3,30.31,WSW,242,1.0,2.0,79,0.00,,SKC,0.00,VWS V14.01,2013-01-14 23:02:00,
2013-01-14 17:07:00,10.4,5.2,30.31,WSW,245,3.0,3.0,79,0.00,,SKC,0.00,VWS V14.01,2013-01-14 23:07:00,
2013-01-14 17:12:00,10.4,5.2,30.31,WSW,254,2.0,3.0,79,0.00,,SKC,0.00,VWS V14.01,2013-01-14 23:12:00,
2013-01-14 17:17:00,10.4,4.9,30.32,West,271,3.0,7.0,78,0.00,,SKC,0.00,VWS V14.01,2013-01-14 23:17:00,
2013-01-14 17:22:00,10.3,4.8,30.32,WNW,282,5.0,5.0,78,0.00,,SKC,0.00,VWS V14.01,2013-01-14 23:22:00,
2013-01-14 17:27:00,10.2,4.7,30.32,West,260,3.0,3.0,78,0.00,,SKC,0.00,VWS V14.01,2013-01-14 23:27:00,
2013-01-14 17:32:00,10.2,4.7,30.32,WNW,300,3.0,3.0,78,0.00,,SKC,0.00,VWS V14.01,2013-01-14 23:32:00,
2013-01-14 17:37:00,10.1,4.6,30.32,WSW,253,7.0,11.0,78,0.00,,SKC,0.00,VWS V14.01,2013-01-14 23:37:00,
2013-01-14 17:42:00,9.9,4.2,30.32,WNW,283,5.0,5.0,77,0.00,,SKC,0.00,VWS V14.01,2013-01-14 23:42:00,
2013-01-14 17:47:00,9.7,4.2,30.32,WNW,282,5.0,5.0,78,0.00,,SKC,0.00,VWS V14.01,2013-01-14 23:47:00,
2013-01-14 17:52:00,9.6,3.8,30.32,WSW,245,1.0,3.0,77,0.00,,SKC,0.00,VWS V14.01,2013-01-14 23:52:00,
2013-01-14 17:57:00,9.6,4.1,30.32,West,265,1.0,3.0,78,0.00,,SKC,0.00,VWS V14.01,2013-01-14 23:57:00,
2013-01-14 18:02:00,9.6,4.1,30.32,West,264,2.0,2.0,78,0.00,,SKC,0.00,VWS V14.01,2013-01-15 00:02:00,
2013-01-14 18:07:00,9.5,4.0,30.32,WSW,254,4.0,6.0,78,0.00,,SKC,0.00,VWS V14.01,2013-01-15 00:07:00,
2013-01-14 18:12:00,9.3,3.3,30.32,West,260,3.0,6.0,76,0.00,,SKC,0.00,VWS V14.01,2013-01-15 00:12:00,
2013-01-14 18:17:00,9.1,3.1,30.32,WSW,254,2.0,7.0,76,0.00,,SKC,0.00,VWS V14.01,2013-01-15 00:17:00,
2013-01-14 18:22:00,9.0,3.0,30.32,WSW,241,5.0,6.0,76,0.00,,SKC,0.00,VWS V14.01,2013-01-15 00:22:00,
2013-01-14 18:27:00,9.0,3.0,30.32,West,259,7.0,7.0,76,0.00,,SKC,0.00,VWS V14.01,2013-01-15 00:27:00,
2013-01-14 18:32:00,8.9,2.9,30.32,West,261,3.0,3.0,76,0.00,,SKC,0.00,VWS V14.01,2013-01-15 00:32:00,
2013-01-14 18:37:00,8.9,2.9,30.32,WSW,252,4.0,5.0,76,0.00,,SKC,0.00,VWS V14.01,2013-01-15 00:37:00,
2013-01-14 18:42:00,8.9,2.9,30.32,West,261,3.0,7.0,76,0.00,,SKC,0.00,VWS V14.01,2013-01-15 00:42:00,
2013-01-14 18:47:00,8.9,2.9,30.32,West,273,3.0,6.0,76,0.00,,SKC,0.00,VWS V14.01,2013-01-15 00:47:00,
2013-01-14 18:53:00,8.9,2.9,30.32,WSW,246,3.0,4.0,76,0.00,,SKC,0.00,VWS V14.01,2013-01-15 00:53:00,
2013-01-14 18:58:00,8.9,2.9,30.32,West,265,5.0,6.0,76,0.00,,SKC,0.00,VWS V14.01,2013-01-15 00:58:00,
2013-01-14 19:02:00,8.8,2.8,30.32,West,279,4.0,9.0,76,0.00,,SKC,0.00,VWS V14.01,2013-01-15 01:02:00,
2013-01-14 19:07:00,8.8,2.8,30.32,West,271,3.0,4.0,76,0.00,,SKC,0.00,VWS V14.01,2013-01-15 01:07:00,
2013-01-14 19:13:00,8.8,3.1,30.32,WSW,249,3.0,3.0,77,0.00,,SKC,0.00,VWS V14.01,2013-01-15 01:13:00,
2013-01-14 19:18:00,8.8,3.1,30.33,WNW,291,3.0,3.0,77,0.00,,SKC,0.00,VWS V14.01,2013-01-15 01:18:00,
2013-01-14 19:23:00,8.8,3.4,30.33,SW,226,2.0,4.0,78,0.00,,SKC,0.00,VWS V14.01,2013-01-15 01:23:00,
2013-01-14 19:28:00,8.9,3.2,30.33,West,259,3.0,6.0,77,0.00,,SKC,0.00,VWS V14.01,2013-01-15 01:28:00,
2013-01-14 19:33:00,8.8,3.1,30.33,West,261,4.0,4.0,77,0.00,,SKC,0.00,VWS V14.01,2013-01-15 01:33:00,
2013-01-14 19:38:00,8.8,3.1,30.33,NW,306,5.0,5.0,77,0.00,,SKC,0.00,VWS V14.01,2013-01-15 01:38:00,
2013-01-14 19:43:00,8.8,3.1,30.33,West,261,3.0,4.0,77,0.00,,SKC,0.00,VWS V14.01,2013-01-15 01:43:00,
2013-01-14 19:48:00,8.7,3.3,30.32,West,269,4.0,6.0,78,0.00,,SKC,0.00,VWS V14.01,2013-01-15 01:48:00,
2013-01-14 19:53:00,8.5,3.1,30.32,West,264,1.0,3.0,78,0.00,,SKC,0.00,VWS V14.01,2013-01-15 01:53:00,
2013-01-14 19:58:00,8.4,3.0,30.32,West,267,1.0,3.0,78,0.00,,SKC,0.00,VWS V14.01,2013-01-15 01:58:00,
2013-01-14 20:03:00,8.2,3.0,30.33,WNW,282,1.0,1.0,79,0.00,,SKC,0.00,VWS V14.01,2013-01-15 02:03:00,
2013-01-14 20:08:00,8.0,2.8,30.33,West,261,3.0,4.0,79,0.00,,SKC,0.00,VWS V14.01,2013-01-15 02:08:00,
2013-01-14 20:13:00,7.9,3.0,30.33,WNW,283,2.0,4.0,80,0.00,,SKC,0.00,VWS V14.01,2013-01-15 02:13:00,
2013-01-14 20:18:00,7.7,2.8,30.32,WSW,248,6.0,8.0,80,0.00,,SKC,0.00,VWS V14.01,2013-01-15 02:18:00,
2013-01-14 20:23:00,7.6,3.0,30.32,WSW,257,4.0,5.0,81,0.00,,SKC,0.00,VWS V14.01,2013-01-15 02:23:00,
2013-01-14 20:28:00,7.5,2.9,30.32,West,259,1.0,3.0,81,0.00,,SKC,0.00,VWS V14.01,2013-01-15 02:28:00,
2013-01-14 20:33:00,7.3,2.7,30.32,West,265,4.0,5.0,81,0.00,,SKC,0.00,VWS V14.01,2013-01-15 02:33:00,
2013-01-14 20:38:00,7.1,2.8,30.32,WNW,293,2.0,3.0,82,0.00,,SKC,0.00,VWS V14.01,2013-01-15 02:38:00,
2013-01-14 20:43:00,7.0,2.7,30.32,West,261,3.0,6.0,82,0.00,,SKC,0.00,VWS V14.01,2013-01-15 02:43:00,
2013-01-14 20:48:00,6.9,2.6,30.32,West,265,1.0,4.0,82,0.00,,SKC,0.00,VWS V14.01,2013-01-15 02:48:00,
2013-01-14 20:53:00,6.8,2.5,30.32,West,261,3.0,3.0,82,0.00,,SKC,0.00,VWS V14.01,2013-01-15 02:53:00,
2013-01-14 20:58:00,6.6,2.3,30.32,WSW,257,0.0,2.0,82,0.00,,SKC,0.00,VWS V14.01,2013-01-15 02:58:00,
2013-01-14 21:03:00,6.4,2.3,30.32,WSW,250,2.0,2.0,83,0.00,,SKC,0.00,VWS V14.01,2013-01-15 03:03:00,
2013-01-14 21:08:00,6.3,2.2,30.32,West,271,1.0,2.0,83,0.00,,SKC,0.00,VWS V14.01,2013-01-15 03:08:00,
2013-01-14 21:13:00,6.1,2.1,30.32,West,272,1.0,3.0,83,0.00,,SKC,0.00,VWS V14.01,2013-01-15 03:13:00,
2013-01-14 21:18:00,5.9,1.9,30.32,West,265,1.0,1.0,83,0.00,,SKC,0.00,VWS V14.01,2013-01-15 03:18:00,
2013-01-14 21:23:00,5.8,2.0,30.32,West,260,0.0,1.0,84,0.00,,SKC,0.00,VWS V14.01,2013-01-15 03:23:00,
2013-01-14 21:28:00,5.6,1.8,30.32,WSW,245,1.0,2.0,84,0.00,,SKC,0.00,VWS V14.01,2013-01-15 03:28:00,
2013-01-14 21:33:00,5.5,1.7,30.32,West,279,0.0,1.0,84,0.00,,SKC,0.00,VWS V14.01,2013-01-15 03:33:00,
2013-01-14 21:38:00,5.4,1.6,30.32,WSW,257,0.0,2.0,84,0.00,,SKC,0.00,VWS V14.01,2013-01-15 03:38:00,
2013-01-14 21:43:00,5.3,1.5,30.32,WSW,253,0.0,0.0,84,0.00,,SKC,0.00,VWS V14.01,2013-01-15 03:43:00,
2013-01-14 21:48:00,5.1,1.3,30.31,West,267,0.0,0.0,84,0.00,,SKC,0.00,VWS V14.01,2013-01-15 03:48:00,
2013-01-14 21:53:00,5.0,1.5,30.31,West,276,0.0,1.0,85,0.00,,SKC,0.00,VWS V14.01,2013-01-15 03:53:00,
2013-01-14 21:58:00,4.8,1.3,30.31,West,261,0.0,0.0,85,0.00,,SKC,0.00,VWS V14.01,2013-01-15 03:58:00,
2013-01-14 22:03:00,4.6,1.1,30.31,West,261,0.0,0.0,85,0.00,,SKC,0.00,VWS V14.01,2013-01-15 04:03:00,
2013-01-14 22:08:00,4.4,0.9,30.31,West,261,0.0,0.0,85,0.00,,SKC,0.00,VWS V14.01,2013-01-15 04:08:00,
2013-01-14 22:13:00,4.2,0.7,30.31,West,261,0.0,0.0,85,0.00,,SKC,0.00,VWS V14.01,2013-01-15 04:13:00,
2013-01-14 22:18:00,4.0,0.8,30.32,SW,225,0.0,0.0,86,0.00,,SKC,0.00,VWS V14.01,2013-01-15 04:18:00,
2013-01-14 22:23:00,3.9,0.6,30.32,SW,225,0.0,0.0,86,0.00,,SKC,0.00,VWS V14.01,2013-01-15 04:23:00,
2013-01-14 22:28:00,3.7,0.5,30.32,SW,225,0.0,0.0,86,0.00,,SKC,0.00,VWS V14.01,2013-01-15 04:28:00,
2013-01-14 22:33:00,3.6,0.6,30.32,SW,225,0.0,0.0,87,0.00,,SKC,0.00,VWS V14.01,2013-01-15 04:33:00,
2013-01-14 22:38:00,3.4,0.4,30.32,SW,225,0.0,0.0,87,0.00,,SKC,0.00,VWS V14.01,2013-01-15 04:38:00,
2013-01-14 22:43:00,3.1,0.1,30.32,SW,225,0.0,0.0,87,0.00,,SKC,0.00,VWS V14.01,2013-01-15 04:43:00,
2013-01-14 22:48:00,2.8,-0.2,30.32,SW,225,0.0,0.0,87,0.00,,SKC,0.00,VWS V14.01,2013-01-15 04:48:00,
2013-01-14 22:53:00,2.6,-0.4,30.32,SW,225,0.0,0.0,87,0.00,,SKC,0.00,VWS V14.01,2013-01-15 04:53:00,
2013-01-14 22:58:00,2.3,-0.7,30.32,SW,225,0.0,0.0,87,0.00,,SKC,0.00,VWS V14.01,2013-01-15 04:58:00,
2013-01-14 23:00:00,2.2,-0.8,30.32,SW,225,0.0,0.0,87,0.00,,SKC,0.00,VWS V14.01,2013-01-15 05:00:00,
2013-01-14 23:01:00,2.2,-0.8,30.32,SW,225,0.0,0.0,87,0.00,,SKC,0.00,VWS V14.01,2013-01-15 05:01:00,
2013-01-14 23:02:00,2.1,-0.9,30.32,SW,225,0.0,0.0,87,0.00,,SKC,0.00,VWS V14.01,2013-01-15 05:02:00,
2013-01-14 23:07:00,2.0,-0.7,30.32,SW,225,0.0,0.0,88,0.00,,SKC,0.00,VWS V14.01,2013-01-15 05:07:00,
2013-01-14 23:12:00,1.9,-0.8,30.32,SW,225,0.0,0.0,88,0.00,,SKC,0.00,VWS V14.01,2013-01-15 05:12:00,
2013-01-14 23:17:00,1.8,-0.9,30.32,SW,225,0.0,0.0,88,0.00,,SKC,0.00,VWS V14.01,2013-01-15 05:17:00,
2013-01-14 23:22:00,1.6,-0.9,30.32,SW,225,0.0,0.0,89,0.00,,SKC,0.00,VWS V14.01,2013-01-15 05:22:00,
2013-01-14 23:27:00,1.4,-1.1,30.32,SW,225,0.0,0.0,89,0.00,,SKC,0.00,VWS V14.01,2013-01-15 05:27:00,
2013-01-14 23:32:00,1.3,-1.2,30.32,SW,225,0.0,0.0,89,0.00,,SKC,0.00,VWS V14.01,2013-01-15 05:32:00,
2013-01-14 23:37:00,1.1,-1.6,30.32,SW,224,0.0,0.0,88,0.00,,SKC,0.00,VWS V14.01,2013-01-15 05:37:00,
2013-01-14 23:42:00,1.2,-1.3,30.32,SW,225,0.0,0.0,89,0.00,,SKC,0.00,VWS V14.01,2013-01-15 05:42:00,
2013-01-14 23:47:00,1.5,-0.8,30.32,SW,225,0.0,0.0,90,0.00,,SKC,0.00,VWS V14.01,2013-01-15 05:47:00,
2013-01-14 23:52:00,1.7,-0.6,30.32,SW,225,0.0,0.0,90,0.00,,SKC,0.00,VWS V14.01,2013-01-15 05:52:00,
2013-01-14 23:57:00,1.4,-1.1,30.32,SW,225,0.0,0.0,89,0.00,,SKC,0.00,VWS V14.01,2013-01-15 05:57:00,